Time;durP1;ratioP1;P1;durP2;ratioP2;P2;SDS_P1;SDS_P2;PMS_P1;PMS_P2;Temp;Humidity;BMP_temperature;BMP_pressure;BME280_temperature;BME280_humidity;BME280_pressure;Samples;Min_cycle;Max_cycle;Signal;HPM_P1;HPM_P2
2021/04/20 00:02:18;;;;;;;2.08;1.15;;;14.20;47.60;;;;;;4990818;28;20045;-83
2021/04/20 00:04:44;;;;;;;4.43;1.02;;;14.20;47.70;;;;;;4990292;28;20038;-82
2021/04/20 00:07:10;;;;;;;1.88;0.50;;;14.10;47.80;;;;;;5022925;28;20662;-83
2021/04/20 00:09:36;;;;;;;1.63;0.90;;;14.10;47.80;;;;;;4987269;28;20041;-83
2021/04/20 00:12:02;;;;;;;2.13;0.88;;;14.10;48.00;;;;;;4990439;28;20046;-82
2021/04/20 00:14:28;;;;;;;1.80;0.63;;;14.10;48.10;;;;;;4973929;28;20054;-83
2021/04/20 00:16:54;;;;;;;2.60;0.98;;;14.10;48.20;;;;;;4991329;28;20042;-82
2021/04/20 00:19:21;;;;;;;4.85;1.20;;;14.00;48.20;;;;;;4989722;28;20030;-81
2021/04/20 00:21:47;;;;;;;2.97;0.73;;;14.00;48.30;;;;;;5022946;28;20464;-82
2021/04/20 00:24:13;;;;;;;2.30;1.00;;;14.00;48.40;;;;;;4991150;28;20495;-83
2021/04/20 00:26:39;;;;;;;1.88;0.50;;;14.00;48.50;;;;;;4989193;28;20026;-83
2021/04/20 00:29:05;;;;;;;1.35;0.60;;;14.00;48.50;;;;;;5020881;28;20044;-82
2021/04/20 00:31:31;;;;;;;2.17;0.95;;;14.00;49.20;;;;;;4987264;28;20038;-82
2021/04/20 00:33:57;;;;;;;5.78;0.70;;;14.00;48.70;;;;;;4991503;28;20446;-82
2021/04/20 00:36:23;;;;;;;1.80;0.70;;;14.00;48.80;;;;;;4989785;28;20031;-82
2021/04/20 00:38:49;;;;;;;1.92;0.98;;;13.90;48.80;;;;;;4988930;28;20038;-82
2021/04/20 00:41:16;;;;;;;1.55;0.80;;;13.90;48.90;;;;;;4989972;28;20030;-82
2021/04/20 00:43:44;;;;;;;3.78;1.27;;;13.90;49.00;;;;;;4989060;28;20046;-83
2021/04/20 00:46:15;;;;;;;1.13;0.47;;;13.90;49.10;;;;;;4973394;28;20511;-82
2021/04/20 00:48:41;;;;;;;2.53;0.80;;;13.90;49.10;;;;;;4972747;28;20527;-83
2021/04/20 00:51:08;;;;;;;3.40;1.48;;;13.80;49.10;;;;;;4971045;28;20047;-83
2021/04/20 00:53:35;;;;;;;1.65;0.68;;;13.80;49.10;;;;;;4987222;28;20058;-81
2021/04/20 00:56:01;;;;;;;1.98;1.15;;;13.80;49.20;;;;;;4990465;28;20046;-83
2021/04/20 00:58:27;;;;;;;4.32;1.08;;;13.80;49.10;;;;;;4969101;28;20072;-82
2021/04/20 01:00:53;;;;;;;1.95;0.95;;;13.90;49.20;;;;;;4985435;28;20045;-82
2021/04/20 01:03:20;;;;;;;2.08;0.90;;;13.90;49.20;;;;;;5022207;28;20487;-82
2021/04/20 01:05:46;;;;;;;3.22;1.33;;;13.90;49.30;;;;;;4975617;28;20419;-83
2021/04/20 01:08:14;;;;;;;4.00;1.45;;;13.90;49.30;;;;;;5022624;28;20042;-83
2021/04/20 01:10:57;;;;;;;1.83;0.75;;;13.90;49.30;;;;;;4970979;28;20094;-81
2021/04/20 01:13:30;;;;;;;1.85;0.73;;;13.90;49.30;;;;;;4989445;28;20045;-82
2021/04/20 01:15:57;;;;;;;1.75;0.82;;;13.90;49.40;;;;;;4986926;28;20065;-82
2021/04/20 01:18:27;;;;;;;3.10;0.50;;;13.90;49.30;;;;;;4987566;28;20030;-81
2021/04/20 01:20:56;;;;;;;1.23;0.63;;;13.90;49.40;;;;;;4987434;28;20049;-82
2021/04/20 01:23:35;;;;;;;1.65;0.65;;;13.90;49.40;;;;;;5023310;28;20046;-81
2021/04/20 01:26:01;;;;;;;1.02;0.40;;;13.90;49.50;;;;;;4988108;28;20061;-82
2021/04/20 01:28:27;;;;;;;0.90;0.55;;;13.90;49.50;;;;;;4969717;28;20050;-83
2021/04/20 01:30:53;;;;;;;2.55;1.33;;;13.80;49.50;;;;;;4978425;28;20035;-82
2021/04/20 01:33:19;;;;;;;7.20;0.80;;;13.80;49.50;;;;;;4988944;28;20126;-82
2021/04/20 01:35:45;;;;;;;9.60;1.02;;;13.80;49.60;;;;;;4986579;28;20042;-82
2021/04/20 01:38:11;;;;;;;6.88;1.08;;;13.80;49.60;;;;;;5022980;28;20050;-83
2021/04/20 01:40:37;;;;;;;1.95;0.93;;;13.80;49.80;;;;;;4982602;28;20498;-80
2021/04/20 01:43:04;;;;;;;3.75;1.23;;;13.80;49.70;;;;;;4988303;28;20034;-82
2021/04/20 01:45:30;;;;;;;2.08;0.85;;;13.70;49.70;;;;;;4987880;28;20039;-82
2021/04/20 01:47:58;;;;;;;1.65;0.73;;;13.80;49.80;;;;;;5021806;28;20384;-82
2021/04/20 01:50:24;;;;;;;3.42;1.25;;;13.70;49.80;;;;;;4989698;28;20043;-83
2021/04/20 01:52:50;;;;;;;4.35;1.95;;;13.70;49.80;;;;;;4974028;28;20046;-82
2021/04/20 01:55:17;;;;;;;4.30;2.20;;;13.70;49.90;;;;;;4987478;28;20043;-82
2021/04/20 01:57:44;;;;;;;3.47;1.58;;;13.70;49.90;;;;;;4989646;28;20037;-82
2021/04/20 02:00:12;;;;;;;2.78;0.60;;;13.70;50.00;;;;;;4970911;28;20037;-82
2021/04/20 02:02:41;;;;;;;1.27;0.60;;;13.70;50.00;;;;;;4984795;28;20383;-81
2021/04/20 02:05:08;;;;;;;1.98;1.13;;;13.60;50.00;;;;;;4983148;28;20495;-82
2021/04/20 02:07:35;;;;;;;2.58;0.98;;;13.60;50.00;;;;;;4985571;28;20026;-82
2021/04/20 02:10:06;;;;;;;1.63;0.63;;;13.60;50.70;;;;;;4986487;28;20035;-82
2021/04/20 02:12:32;;;;;;;2.63;1.37;;;13.60;50.10;;;;;;4984881;28;20027;-82
2021/04/20 02:14:58;;;;;;;3.78;1.35;;;13.60;50.10;;;;;;4969971;28;20415;-80
2021/04/20 02:17:24;;;;;;;2.13;1.02;;;13.60;50.10;;;;;;4986032;28;20030;-80
2021/04/20 02:19:50;;;;;;;2.13;0.73;;;13.60;50.30;;;;;;4971787;28;20046;-82
2021/04/20 02:22:17;;;;;;;1.35;0.60;;;13.60;50.30;;;;;;5018726;28;20026;-82
2021/04/20 02:24:43;;;;;;;4.50;0.73;;;13.50;50.30;;;;;;4972415;28;20795;-82
2021/04/20 02:27:10;;;;;;;3.25;1.42;;;13.50;50.30;;;;;;4995578;28;20033;-82
2021/04/20 02:29:36;;;;;;;2.22;0.93;;;13.50;50.40;;;;;;4990427;28;20516;-82
2021/04/20 02:32:02;;;;;;;3.67;1.00;;;13.50;50.40;;;;;;4961224;28;20031;-82
2021/04/20 02:34:29;;;;;;;2.45;0.95;;;13.50;50.40;;;;;;4996730;28;20042;-81
2021/04/20 02:36:55;;;;;;;3.10;1.50;;;13.50;50.40;;;;;;5006949;28;20033;-82
2021/04/20 02:39:21;;;;;;;2.17;1.02;;;13.60;50.40;;;;;;4975827;28;20026;-80
2021/04/20 02:41:48;;;;;;;0.80;0.50;;;13.50;50.40;;;;;;4991134;28;20041;-82
2021/04/20 02:44:14;;;;;;;4.53;1.45;;;13.60;50.50;;;;;;5024582;28;20030;-82
2021/04/20 02:46:42;;;;;;;6.07;0.95;;;13.50;50.50;;;;;;4976040;28;20043;-82
2021/04/20 02:49:09;;;;;;;7.03;1.23;;;13.60;50.60;;;;;;4992930;28;20042;-83
2021/04/20 02:51:36;;;;;;;2.70;1.05;;;13.50;50.60;;;;;;4973336;28;20033;-82
2021/04/20 02:54:02;;;;;;;1.65;0.82;;;13.50;50.60;;;;;;4993917;28;20060;-82
2021/04/20 02:56:29;;;;;;;1.65;0.60;;;13.50;50.60;;;;;;4989149;28;20041;-83
2021/04/20 02:58:55;;;;;;;1.80;0.77;;;13.50;50.70;;;;;;4989350;28;20038;-80
2021/04/20 03:01:22;;;;;;;1.10;0.73;;;13.50;50.70;;;;;;4989668;28;20471;-83
2021/04/20 03:03:49;;;;;;;11.85;1.20;;;13.50;50.70;;;;;;4991484;28;20039;-82
2021/04/20 03:06:15;;;;;;;2.67;0.85;;;13.40;50.70;;;;;;5021945;28;20038;-81
2021/04/20 03:08:42;;;;;;;1.80;0.80;;;13.40;50.70;;;;;;4994109;28;20101;-82
2021/04/20 03:11:14;;;;;;;2.78;0.85;;;13.40;50.80;;;;;;4973824;28;20042;-81
2021/04/20 03:13:43;;;;;;;2.17;1.13;;;13.40;50.80;;;;;;4987529;28;20057;-81
2021/04/20 03:16:10;;;;;;;4.45;1.48;;;13.30;50.80;;;;;;4972466;28;20054;-82
2021/04/20 03:18:36;;;;;;;1.38;0.60;;;13.30;50.80;;;;;;4973372;28;20034;-79
2021/04/20 03:21:14;;;;;;;4.10;1.17;;;13.30;50.90;;;;;;5006715;28;20041;-78
2021/04/20 03:23:41;;;;;;;4.35;0.90;;;13.20;50.80;;;;;;4976108;28;20368;-78
2021/04/20 03:26:34;;;;;;;3.20;1.00;;;13.20;50.90;;;;;;5024722;28;20494;-79
2021/04/20 03:29:01;;;;;;;1.52;0.55;;;13.20;50.90;;;;;;4988989;28;20042;-79
2021/04/20 03:31:27;;;;;;;2.90;1.15;;;13.20;50.80;;;;;;4973233;28;20531;-79
2021/04/20 03:34:08;;;;;;;3.08;1.20;;;13.20;50.80;;;;;;4987876;28;20030;-79
2021/04/20 03:36:37;;;;;;;2.15;0.70;;;13.20;51.00;;;;;;4987763;28;20030;-80
2021/04/20 03:39:15;;;;;;;2.78;1.17;;;13.20;50.90;;;;;;4962448;28;20053;-79
2021/04/20 03:41:47;;;;;;;2.42;1.20;;;13.10;50.90;;;;;;4972574;28;20042;-79
2021/04/20 03:44:16;;;;;;;2.13;0.63;;;13.10;50.90;;;;;;4990728;28;20035;-80
2021/04/20 03:46:43;;;;;;;1.65;0.82;;;13.10;51.00;;;;;;4975699;28;20058;-80
2021/04/20 03:49:17;;;;;;;1.38;0.60;;;13.10;51.00;;;;;;4990386;28;20033;-79
2021/04/20 03:51:44;;;;;;;1.33;0.50;;;13.10;51.00;;;;;;4990270;28;20034;-79
2021/04/20 03:54:14;;;;;;;2.28;1.00;;;13.10;51.00;;;;;;4988727;28;20045;-79
2021/04/20 03:56:43;;;;;;;1.58;0.52;;;13.10;51.00;;;;;;4974979;28;20030;-81
2021/04/20 03:59:09;;;;;;;1.17;0.55;;;13.10;51.10;;;;;;4976436;28;20053;-80
2021/04/20 04:01:41;;;;;;;2.03;1.00;;;13.10;51.10;;;;;;4975942;28;20404;-78
2021/04/20 04:04:08;;;;;;;1.15;0.47;;;13.00;51.70;;;;;;4975965;28;20038;-77
2021/04/20 04:06:37;;;;;;;1.00;0.68;;;13.00;51.20;;;;;;4973168;28;20480;-79
2021/04/20 04:09:04;;;;;;;3.15;1.13;;;12.90;51.20;;;;;;4977470;28;20518;-78
2021/04/20 04:11:33;;;;;;;1.63;0.77;;;12.90;51.30;;;;;;4993381;28;20026;-78
2021/04/20 04:14:00;;;;;;;1.95;0.88;;;12.90;51.30;;;;;;4991528;28;20047;-77
2021/04/20 04:16:26;;;;;;;3.45;0.90;;;12.90;51.30;;;;;;4992491;28;20034;-78
2021/04/20 04:18:53;;;;;;;1.83;0.98;;;12.90;51.30;;;;;;4992167;28;20034;-79
2021/04/20 04:21:21;;;;;;;2.20;0.95;;;12.90;51.30;;;;;;4993040;28;20027;-79
2021/04/20 04:23:50;;;;;;;1.00;0.25;;;12.90;51.40;;;;;;4977055;28;20050;-78
2021/04/20 04:26:19;;;;;;;1.58;0.60;;;12.90;51.50;;;;;;4992656;28;20046;-78
2021/04/20 04:28:49;;;;;;;2.67;0.90;;;12.90;51.50;;;;;;4975240;28;20486;-78
2021/04/20 04:31:15;;;;;;;1.27;0.68;;;12.80;51.50;;;;;;4992171;28;20042;-78
2021/04/20 04:33:42;;;;;;;2.63;0.95;;;12.90;51.60;;;;;;4991400;28;20049;-79
2021/04/20 04:36:11;;;;;;;1.45;0.98;;;12.80;51.50;;;;;;4992792;28;20045;-78
2021/04/20 04:38:38;;;;;;;5.13;1.33;;;12.80;51.60;;;;;;4992351;28;20041;-78
2021/04/20 04:41:04;;;;;;;1.70;0.80;;;12.80;51.60;;;;;;4991346;28;20046;-79
2021/04/20 04:43:30;;;;;;;2.50;0.50;;;12.80;51.70;;;;;;4976310;28;20424;-79
2021/04/20 04:45:57;;;;;;;1.40;0.52;;;12.70;51.70;;;;;;4993206;28;20042;-78
2021/04/20 04:48:26;;;;;;;1.60;0.82;;;12.70;51.80;;;;;;4992816;28;20522;-79
2021/04/20 04:50:53;;;;;;;2.55;1.10;;;12.70;51.90;;;;;;4992451;28;20034;-79
2021/04/20 04:53:20;;;;;;;1.02;0.35;;;12.70;51.90;;;;;;4991964;28;20050;-79
2021/04/20 04:55:46;;;;;;;1.50;0.90;;;12.70;51.90;;;;;;4991690;28;20376;-79
2021/04/20 04:58:12;;;;;;;2.47;1.13;;;12.70;51.90;;;;;;4992320;28;20022;-80
2021/04/20 05:00:39;;;;;;;2.55;0.80;;;12.70;51.90;;;;;;4991693;28;20074;-78
2021/04/20 05:03:05;;;;;;;1.00;0.65;;;12.70;51.90;;;;;;4992081;28;20018;-79
2021/04/20 05:05:31;;;;;;;1.70;0.57;;;12.70;52.00;;;;;;4975627;28;20522;-79
2021/04/20 05:07:59;;;;;;;2.65;0.70;;;12.70;52.00;;;;;;4992459;28;20057;-79
2021/04/20 05:10:25;;;;;;;3.95;0.70;;;12.70;52.00;;;;;;5024645;28;20419;-78
2021/04/20 05:12:52;;;;;;;2.63;1.02;;;12.60;52.10;;;;;;4976057;28;20039;-79
2021/04/20 05:15:18;;;;;;;5.25;1.58;;;12.60;52.20;;;;;;4990544;28;20034;-79
2021/04/20 05:17:44;;;;;;;1.20;0.68;;;12.50;52.10;;;;;;4991664;28;20491;-79
2021/04/20 05:20:12;;;;;;;1.75;1.13;;;12.50;52.10;;;;;;4975306;28;20042;-79
2021/04/20 05:22:38;;;;;;;2.90;1.17;;;12.50;52.30;;;;;;4992410;28;20034;-79
2021/04/20 05:25:12;;;;;;;2.53;1.05;;;12.50;52.30;;;;;;4993062;28;20034;-79
2021/04/20 05:27:38;;;;;;;1.95;0.80;;;12.50;52.40;;;;;;4992860;28;20034;-78
2021/04/20 05:30:05;;;;;;;2.65;0.90;;;12.40;52.30;;;;;;4992734;28;20034;-78
2021/04/20 05:32:41;;;;;;;2.05;0.75;;;12.50;52.40;;;;;;4991391;28;20018;-82
2021/04/20 05:35:08;;;;;;;2.03;0.98;;;12.50;52.50;;;;;;4989045;28;20053;-78
2021/04/20 05:37:39;;;;;;;1.10;0.70;;;12.40;52.40;;;;;;4991655;28;20490;-79
2021/04/20 05:40:15;;;;;;;14.98;1.25;;;12.40;52.50;;;;;;4991588;28;20026;-79
2021/04/20 05:42:41;;;;;;;3.60;1.65;;;12.40;52.50;;;;;;4975442;28;20045;-79
2021/04/20 05:45:09;;;;;;;3.38;1.40;;;12.40;52.60;;;;;;4992209;28;20038;-79
2021/04/20 05:47:39;;;;;;;2.20;0.93;;;12.40;52.60;;;;;;4992674;28;20046;-79
2021/04/20 05:50:06;;;;;;;2.92;0.82;;;12.40;52.70;;;;;;4974236;28;20050;-79
2021/04/20 05:52:36;;;;;;;3.67;1.52;;;12.40;52.70;;;;;;4976301;28;20030;-80
2021/04/20 05:55:03;;;;;;;3.00;1.13;;;12.40;52.80;;;;;;4991243;28;20050;-80
2021/04/20 05:57:29;;;;;;;5.05;1.30;;;12.40;52.90;;;;;;4993720;28;20022;-79
2021/04/20 05:59:56;;;;;;;5.72;1.70;;;12.40;52.90;;;;;;4996067;28;20034;-79
2021/04/20 06:02:23;;;;;;;2.78;0.93;;;12.40;53.00;;;;;;4978320;28;20050;-80
2021/04/20 06:04:57;;;;;;;4.47;1.83;;;12.40;52.90;;;;;;4994381;28;20042;-81
2021/04/20 06:07:24;;;;;;;1.40;0.77;;;12.50;52.90;;;;;;4995466;28;20038;-80
2021/04/20 06:09:50;;;;;;;0.73;0.43;;;12.60;52.90;;;;;;4995374;28;20039;-82
2021/04/20 06:12:16;;;;;;;2.63;1.15;;;12.60;52.80;;;;;;4995223;28;20034;-82
2021/04/20 06:14:42;;;;;;;3.20;0.90;;;12.70;52.80;;;;;;4994477;28;20046;-82
2021/04/20 06:17:11;;;;;;;2.85;1.00;;;12.70;52.70;;;;;;4994130;28;20076;-82
2021/04/20 06:19:37;;;;;;;0.93;0.63;;;12.80;52.80;;;;;;4977613;28;20065;-80
2021/04/20 06:22:04;;;;;;;4.60;0.80;;;12.90;52.70;;;;;;4996400;28;20031;-80
2021/04/20 06:24:30;;;;;;;2.40;0.88;;;12.90;52.60;;;;;;4995005;28;20030;-80
2021/04/20 06:26:57;;;;;;;1.85;0.88;;;13.00;52.60;;;;;;4995481;28;20034;-78
2021/04/20 06:29:23;;;;;;;1.73;0.63;;;13.00;52.60;;;;;;4994738;28;20035;-81
2021/04/20 06:31:49;;;;;;;4.30;0.80;;;13.10;52.60;;;;;;4993947;28;20031;-79
2021/04/20 06:34:15;;;;;;;0.88;0.50;;;13.20;53.10;;;;;;4993968;28;20050;-80
2021/04/20 06:36:41;;;;;;;2.03;0.68;;;13.20;52.50;;;;;;4995129;28;20476;-82
2021/04/20 06:39:08;;;;;;;1.88;1.02;;;13.30;52.50;;;;;;4978632;28;20114;-79
2021/04/20 06:41:34;;;;;;;2.97;1.02;;;13.40;52.50;;;;;;4994938;28;20045;-78
2021/04/20 06:44:18;;;;;;;2.05;0.73;;;13.40;52.50;;;;;;4993155;28;20411;-79
2021/04/20 06:46:56;;;;;;;2.95;0.60;;;13.40;52.60;;;;;;4992563;28;20038;-79
2021/04/20 06:49:25;;;;;;;1.38;0.90;;;13.40;52.70;;;;;;4978352;28;20042;-76
2021/04/20 06:51:54;;;;;;;4.35;1.38;;;13.40;52.70;;;;;;4992631;28;20471;-78
2021/04/20 06:54:20;;;;;;;1.40;0.77;;;13.40;52.60;;;;;;4988334;28;20046;-79
2021/04/20 06:56:50;;;;;;;6.43;0.90;;;13.50;52.60;;;;;;4992345;28;20391;-77
2021/04/20 06:59:54;;;;;;;1.75;0.40;;;13.70;52.60;;;;;;5023638;28;20046;-78
2021/04/20 07:02:50;;;;;;;4.38;0.82;;;13.90;52.40;;;;;;4990140;28;20042;-77
2021/04/20 07:05:38;;;;;;;1.75;0.35;;;14.00;52.20;;;;;;4968891;28;20023;-80
2021/04/20 07:08:07;;;;;;;1.77;0.63;;;14.20;52.10;;;;;;4957324;28;20046;-80
2021/04/20 07:10:35;;;;;;;3.90;1.40;;;14.30;51.90;;;;;;4955408;28;20039;-85
2021/04/20 07:13:06;;;;;;;1.38;0.68;;;14.40;51.70;;;;;;4946982;28;20552;-78
2021/04/20 07:15:32;;;;;;;1.10;0.40;;;14.60;51.60;;;;;;4949270;28;20042;-79
2021/04/20 07:18:13;;;;;;;3.10;0.93;;;14.60;51.40;;;;;;4939247;28;20039;-78
2021/04/20 07:21:13;;;;;;;1.77;0.60;;;14.70;52.10;;;;;;4969138;28;20035;-79
2021/04/20 07:24:13;;;;;;;1.23;0.55;;;14.70;51.60;;;;;;4958568;28;20043;-80
2021/04/20 07:27:11;;;;;;;3.63;0.65;;;14.60;51.60;;;;;;4952490;28;20042;-78
2021/04/20 07:29:51;;;;;;;0.82;0.25;;;14.60;51.60;;;;;;4956086;28;20042;-78
2021/04/20 07:32:47;;;;;;;1.83;0.43;;;14.80;51.50;;;;;;4942996;28;20031;-79
2021/04/20 07:35:35;;;;;;;0.60;0.30;;;14.80;51.50;;;;;;4968757;28;20543;-80
2021/04/20 07:38:16;;;;;;;0.85;0.45;;;14.80;51.50;;;;;;4968688;28;20162;-82
2021/04/20 07:41:01;;;;;;;1.88;0.90;;;14.80;51.60;;;;;;4956431;28;20046;-80
2021/04/20 07:43:36;;;;;;;1.30;0.52;;;14.90;51.60;;;;;;4992075;28;20042;-81
2021/04/20 07:46:05;;;;;;;4.70;0.85;;;15.00;51.50;;;;;;4991780;28;20041;-80
2021/04/20 07:49:14;;;;;;;2.67;0.90;;;15.10;51.30;;;;;;4976861;28;20038;-82
2021/04/20 07:51:43;;;;;;;2.10;0.40;;;15.20;51.30;;;;;;4985870;28;20043;-81
2021/04/20 07:54:11;;;;;;;3.47;0.73;;;15.30;51.00;;;;;;4991612;28;20042;-79
2021/04/20 07:56:49;;;;;;;0.47;0.30;;;15.60;50.70;;;;;;4991254;28;20022;-78
2021/04/20 07:59:19;;;;;;;5.97;0.90;;;16.00;50.40;;;;;;4990180;28;20500;-84
2021/04/20 08:01:52;;;;;;;2.72;1.08;;;16.20;50.00;;;;;;4956480;28;20042;-80
2021/04/20 08:04:21;;;;;;;1.30;0.70;;;16.40;49.80;;;;;;4970590;28;20096;-83
2021/04/20 08:06:47;;;;;;;1.40;0.32;;;16.60;49.50;;;;;;5006711;28;20491;-81
2021/04/20 08:09:19;;;;;;;7.65;0.82;;;16.80;49.30;;;;;;4974178;28;20383;-83
2021/04/20 08:11:47;;;;;;;1.05;0.40;;;16.90;49.30;;;;;;4974100;28;20054;-78
2021/04/20 08:14:25;;;;;;;1.35;0.88;;;17.00;49.20;;;;;;5022766;28;20046;-80
2021/04/20 08:17:02;;;;;;;1.73;0.32;;;17.10;49.10;;;;;;4990597;28;20034;-81
2021/04/20 08:19:33;;;;;;;6.60;1.02;;;17.00;49.20;;;;;;4991700;28;20041;-80
2021/04/20 08:21:59;;;;;;;0.55;0.25;;;16.90;49.40;;;;;;4989641;28;20057;-82
2021/04/20 08:24:54;;;;;;;2.15;0.63;;;17.10;49.40;;;;;;4992742;28;20041;-80
2021/04/20 08:27:31;;;;;;;1.92;1.02;;;17.30;49.10;;;;;;4973414;28;20026;-81
2021/04/20 08:30:03;;;;;;;3.83;0.90;;;17.60;48.70;;;;;;4977165;28;20045;-81
2021/04/20 08:32:29;;;;;;;4.72;1.17;;;18.00;48.20;;;;;;4976483;28;20042;-81
2021/04/20 08:35:09;;;;;;;2.00;0.65;;;18.30;47.90;;;;;;4975787;28;20045;-80
2021/04/20 08:37:46;;;;;;;1.50;0.82;;;18.60;47.40;;;;;;4992739;28;20049;-80
2021/04/20 08:40:26;;;;;;;5.82;0.20;;;18.90;47.10;;;;;;4992214;28;20052;-80
2021/04/20 08:43:14;;;;;;;1.30;0.63;;;19.10;46.70;;;;;;4992470;28;20054;-81
2021/04/20 08:45:43;;;;;;;1.40;0.45;;;19.30;46.40;;;;;;4992814;28;20037;-80
2021/04/20 08:48:09;;;;;;;2.25;0.75;;;19.40;46.30;;;;;;4992018;28;20192;-85
2021/04/20 08:50:42;;;;;;;1.25;0.57;;;19.60;46.20;;;;;;4993310;28;20041;-81
2021/04/20 08:53:13;;;;;;;2.97;0.50;;;19.60;46.10;;;;;;4990114;28;20026;-82
2021/04/20 08:55:52;;;;;;;1.20;0.40;;;19.50;46.10;;;;;;4990451;28;20384;-82
2021/04/20 08:58:21;;;;;;;2.83;1.05;;;19.50;45.90;;;;;;4992061;28;20061;-83
2021/04/20 09:01:24;;;;;;;1.25;0.50;;;19.40;45.90;;;;;;4991678;28;20034;-81
2021/04/20 09:04:28;;;;;;;1.55;0.60;;;19.50;46.00;;;;;;4991867;28;20491;-80
2021/04/20 09:06:56;;;;;;;1.33;0.40;;;19.80;45.70;;;;;;4992958;28;20041;-80
2021/04/20 09:09:24;;;;;;;1.10;0.52;;;20.00;45.20;;;;;;4975770;28;20051;-82
2021/04/20 09:11:56;;;;;;;2.92;0.45;;;20.20;45.10;;;;;;4991556;28;20033;-82
2021/04/20 09:14:34;;;;;;;1.40;0.50;;;20.70;44.70;;;;;;4991702;28;20483;-79
2021/04/20 09:17:21;;;;;;;0.88;0.40;;;21.00;44.20;;;;;;4989052;28;20038;-79
2021/04/20 09:20:02;;;;;;;1.55;0.35;;;21.10;43.70;;;;;;5006306;28;20380;-79
2021/04/20 09:22:37;;;;;;;1.63;0.63;;;21.10;43.50;;;;;;4991645;28;20050;-78
2021/04/20 09:25:13;;;;;;;2.95;0.82;;;21.10;43.70;;;;;;4992495;28;20034;-78
2021/04/20 09:27:39;;;;;;;2.17;0.68;;;21.20;43.70;;;;;;4992248;28;20033;-78
2021/04/20 09:30:07;;;;;;;1.50;0.20;;;21.40;43.40;;;;;;4993016;28;20034;-78
2021/04/20 09:32:40;;;;;;;0.08;0.00;;;21.80;43.20;;;;;;4994066;28;20014;-76
2021/04/20 09:35:07;;;;;;;2.00;0.70;;;22.10;42.60;;;;;;5010440;28;20038;-78
2021/04/20 09:37:35;;;;;;;1.52;0.50;;;22.10;42.30;;;;;;4979322;28;20026;-79
2021/04/20 09:40:01;;;;;;;3.40;0.60;;;22.20;42.50;;;;;;4995043;28;20026;-78
2021/04/20 09:42:27;;;;;;;2.08;0.57;;;22.40;42.30;;;;;;4995186;28;20475;-83
2021/04/20 09:44:59;;;;;;;2.33;0.55;;;22.50;41.90;;;;;;4994971;28;20034;-76
2021/04/20 09:47:54;;;;;;;1.48;0.63;;;22.60;41.90;;;;;;4993218;28;20042;-85
2021/04/20 09:51:02;;;;;;;1.27;0.38;;;22.70;41.80;;;;;;4990509;28;20042;-76
2021/04/20 09:53:41;;;;;;;0.60;0.40;;;22.80;41.60;;;;;;5006659;28;20033;-81
2021/04/20 09:56:29;;;;;;;5.35;0.75;;;22.70;41.30;;;;;;4993077;28;20034;-83
2021/04/20 09:58:55;;;;;;;0.30;0.00;;;22.60;41.20;;;;;;4972948;28;20436;-77
2021/04/20 10:01:59;;;;;;;14.93;0.90;;;22.60;41.20;;;;;;4993794;28;20034;-82
2021/04/20 10:04:38;;;;;;;0.43;0.10;;;22.70;41.20;;;;;;4988472;28;20042;-80
2021/04/20 10:07:19;;;;;;;2.70;0.40;;;22.70;41.00;;;;;;4994735;28;20035;-80
2021/04/20 10:10:17;;;;;;;0.98;0.22;;;22.60;40.90;;;;;;4995127;28;20034;-80
2021/04/20 10:13:16;;;;;;;11.70;0.55;;;22.50;40.90;;;;;;4973559;28;20065;-76
2021/04/20 10:15:46;;;;;;;1.35;0.20;;;22.50;40.90;;;;;;4955821;28;20049;-82
2021/04/20 10:18:27;;;;;;;1.67;0.47;;;22.60;40.70;;;;;;4964072;28;20049;-77
2021/04/20 10:21:16;;;;;;;0.60;0.10;;;22.70;40.50;;;;;;4970291;28;20031;-84
2021/04/20 10:24:02;;;;;;;1.60;0.43;;;22.80;40.20;;;;;;4943306;28;20146;-80
2021/04/20 10:26:54;;;;;;;3.38;0.52;;;22.90;39.70;;;;;;4974437;28;20031;-79
2021/04/20 10:29:40;;;;;;;2.47;0.70;;;22.70;39.60;;;;;;4943126;28;20038;-80
2021/04/20 10:32:41;;;;;;;2.25;0.38;;;22.70;39.70;;;;;;4952885;28;20039;-80
2021/04/20 10:35:16;;;;;;;5.13;0.60;;;22.60;39.60;;;;;;4970354;28;20057;-80
2021/04/20 10:37:44;;;;;;;3.72;0.52;;;22.80;39.60;;;;;;4954532;28;20034;-79
2021/04/20 10:40:15;;;;;;;0.30;0.10;;;23.00;39.30;;;;;;4942206;28;20031;-87
2021/04/20 10:42:46;;;;;;;1.65;0.50;;;23.30;39.20;;;;;;4961597;28;20043;-81
2021/04/20 10:45:13;;;;;;;2.53;0.50;;;23.60;38.90;;;;;;4967386;28;20392;-79
2021/04/20 10:47:40;;;;;;;2.22;0.43;;;23.80;38.70;;;;;;4925922;28;20051;-82
2021/04/20 10:50:07;;;;;;;1.23;0.30;;;24.00;38.40;;;;;;4942592;28;20043;-82
2021/04/20 10:52:34;;;;;;;2.13;0.45;;;24.00;38.00;;;;;;4994633;28;20042;-83
2021/04/20 10:55:08;;;;;;;3.60;0.40;;;23.90;37.90;;;;;;4978258;28;20491;-75
2021/04/20 10:57:39;;;;;;;2.92;0.45;;;23.90;37.90;;;;;;4993939;28;20444;-75
2021/04/20 11:00:05;;;;;;;;;;;23.90;37.70;;;;;;4993233;28;20042;-75
2021/04/20 11:02:37;;;;;;;1.05;0.45;;;23.80;37.40;;;;;;4994474;28;19910;-77
2021/04/20 11:05:04;;;;;;;0.90;0.10;;;23.90;37.50;;;;;;4992666;28;20471;-78
2021/04/20 11:07:42;;;;;;;1.63;0.20;;;24.10;37.90;;;;;;4977297;28;20041;-78
2021/04/20 11:10:10;;;;;;;4.15;0.30;;;24.10;36.80;;;;;;4993534;28;20106;-77
2021/04/20 11:12:49;;;;;;;0.55;0.20;;;24.00;36.50;;;;;;4994163;28;20038;-77
2021/04/20 11:15:17;;;;;;;1.67;0.50;;;24.00;36.30;;;;;;4994220;28;20407;-80
2021/04/20 11:17:43;;;;;;;1.25;0.55;;;23.80;37.00;;;;;;4993409;28;20387;-79
2021/04/20 11:20:43;;;;;;;5.30;0.28;;;23.80;36.50;;;;;;4993791;28;20034;-75
2021/04/20 11:23:09;;;;;;;2.13;0.20;;;23.60;36.40;;;;;;4992493;28;20030;-74
2021/04/20 11:25:53;;;;;;;0.90;0.10;;;23.30;36.30;;;;;;4995171;28;20304;-74
2021/04/20 11:28:39;;;;;;;2.90;0.20;;;23.20;36.10;;;;;;4992776;28;20030;-74
2021/04/20 11:31:07;;;;;;;0.35;0.13;;;23.10;36.00;;;;;;4992163;28;20041;-74
2021/04/20 11:33:49;;;;;;;0.93;0.20;;;23.10;35.40;;;;;;4973183;28;20061;-74
2021/04/20 11:36:27;;;;;;;0.30;0.10;;;22.90;35.20;;;;;;4983093;28;20394;-77
2021/04/20 11:38:56;;;;;;;0.63;0.15;;;22.70;34.90;;;;;;4994193;28;20026;-74
2021/04/20 11:41:45;;;;;;;0.10;0.00;;;22.50;35.20;;;;;;4991386;28;20045;-74
2021/04/20 11:44:12;;;;;;;0.43;0.10;;;22.30;35.40;;;;;;5008407;28;20026;-75
2021/04/20 11:46:40;;;;;;;0.15;0.08;;;22.10;35.40;;;;;;4990926;28;20042;-75
2021/04/20 11:49:18;;;;;;;2.67;0.25;;;22.10;35.50;;;;;;4972826;28;20412;-77
2021/04/20 11:51:45;;;;;;;0.90;0.20;;;22.00;35.30;;;;;;4987539;28;20038;-80
2021/04/20 11:54:24;;;;;;;2.95;0.43;;;21.80;35.60;;;;;;4990333;28;20498;-77
2021/04/20 11:56:51;;;;;;;1.27;0.57;;;21.80;35.70;;;;;;4990561;28;20030;-75
2021/04/20 11:59:20;;;;;;;2.70;0.30;;;21.80;35.50;;;;;;4993047;28;20030;-78
2021/04/20 12:01:47;;;;;;;0.22;0.10;;;21.70;35.60;;;;;;4975018;28;20038;-76
2021/04/20 12:04:13;;;;;;;1.02;0.20;;;21.70;35.80;;;;;;4993462;28;20043;-77
2021/04/20 12:06:44;;;;;;;1.27;0.50;;;21.60;36.00;;;;;;4991590;28;20407;-77
2021/04/20 12:09:20;;;;;;;2.33;0.63;;;21.60;36.20;;;;;;4992329;28;20391;-76
2021/04/20 12:11:47;;;;;;;0.57;0.30;;;21.50;36.40;;;;;;4992809;28;20046;-77
2021/04/20 12:14:17;;;;;;;1.70;0.57;;;21.50;36.50;;;;;;4975345;28;20061;-76
2021/04/20 12:16:44;;;;;;;4.45;0.30;;;21.40;36.50;;;;;;4990299;28;20031;-76
2021/04/20 12:19:12;;;;;;;0.40;0.20;;;21.40;36.60;;;;;;4992511;28;20533;-78
2021/04/20 12:21:39;;;;;;;1.77;0.38;;;21.40;36.60;;;;;;4992383;28;20034;-77
2021/04/20 12:24:09;;;;;;;2.58;0.50;;;21.40;36.60;;;;;;4975758;28;20049;-78
2021/04/20 12:26:35;;;;;;;0.22;0.10;;;21.40;36.50;;;;;;4992269;28;20037;-78
2021/04/20 12:29:09;;;;;;;0.28;0.05;;;21.30;36.60;;;;;;4990882;28;20031;-78
2021/04/20 12:31:35;;;;;;;1.10;0.17;;;21.20;36.60;;;;;;4990372;28;20034;-78
2021/04/20 12:34:01;;;;;;;0.17;0.00;;;21.10;36.70;;;;;;4975503;28;20392;-80
2021/04/20 12:36:30;;;;;;;1.45;0.43;;;21.00;36.90;;;;;;4991826;28;20041;-81
2021/04/20 12:38:59;;;;;;;1.15;0.35;;;20.90;36.90;;;;;;4991577;28;20034;-81
2021/04/20 12:41:28;;;;;;;1.75;0.30;;;20.90;36.90;;;;;;4975737;28;20038;-79
2021/04/20 12:43:55;;;;;;;0.40;0.03;;;20.90;37.00;;;;;;4990924;28;20027;-81
2021/04/20 12:46:24;;;;;;;0.85;0.30;;;20.90;37.00;;;;;;4991003;28;20038;-83
2021/04/20 12:48:52;;;;;;;1.30;0.35;;;20.90;36.80;;;;;;4990548;28;20046;-82
2021/04/20 12:51:18;;;;;;;0.75;0.20;;;20.90;36.80;;;;;;4991927;28;20034;-79
2021/04/20 12:53:46;;;;;;;1.00;0.20;;;21.00;36.80;;;;;;4991698;28;20034;-80
2021/04/20 12:56:18;;;;;;;0.28;0.17;;;21.00;36.70;;;;;;5006145;28;20511;-78
2021/04/20 12:58:44;;;;;;;0.40;0.10;;;21.10;36.60;;;;;;4989824;28;20038;-78
2021/04/20 13:01:11;;;;;;;3.65;0.98;;;21.10;36.50;;;;;;4989418;28;20046;-79
2021/04/20 13:03:37;;;;;;;0.30;0.08;;;21.10;36.40;;;;;;4991634;28;20042;-79
2021/04/20 13:06:07;;;;;;;0.50;0.10;;;21.20;36.40;;;;;;4991380;28;20388;-79
2021/04/20 13:08:34;;;;;;;0.50;0.20;;;21.20;36.30;;;;;;4966242;28;20035;-79
2021/04/20 13:11:00;;;;;;;0.57;0.20;;;21.20;36.20;;;;;;4991207;28;20038;-79